WetterOnline ( https://www.wetteronline.at )

Wetter aktuell Görlitz

Aktuelles Wetter: Görlitz (240m)

6-stündlich | Neueste Meldungen
Ortszeit Temperatur Wetter
Di, 16.08. 14:00 28.6° C wolkenlos
Di, 16.08. 8:00 20.8° C leicht bewölkt
Di, 16.08. 2:00 18.8° C leicht bewölkt
Mo, 15.08. 20:00 22.6° C bedeckt
Mo, 15.08. 14:00 28.5° C leicht bewölkt
Mo, 15.08. 8:00 17.7° C leicht bewölkt
Mo, 15.08. 2:00 18.2° C fast wolkenlos
So, 14.08. 20:00 23.1° C bedeckt
Ortszeit Temperatur Wetter
Di, 16.08. 18:00 30.4° C leicht bewölkt
Di, 16.08. 17:50 30.4° C leicht bewölkt
Di, 16.08. 17:40 30.3° C leicht bewölkt
Di, 16.08. 17:30 30.6° C leicht bewölkt
Di, 16.08. 17:20 30.6° C leicht bewölkt
Di, 16.08. 17:10 30.7° C leicht bewölkt
Di, 16.08. 17:00 30.4° C leicht bewölkt
Di, 16.08. 16:30 29.4° C leicht bewölkt
Di, 16.08. 16:00 30.6° C wolkig
Di, 16.08. 15:30 29.9° C fast wolkenlos
Di, 16.08. 15:00 29.0° C leicht bewölkt
Ortszeit Relative Feuchte Sichtweite
Di, 16.08. 14:00 37% 60 km
Di, 16.08. 8:00 70% 40 km
Di, 16.08. 2:00 77% 60 km
Mo, 15.08. 20:00 64% 65 km
Mo, 15.08. 14:00 44% 40 km
Mo, 15.08. 8:00 93% 19 km
Mo, 15.08. 2:00 93% 21 km
So, 14.08. 20:00 64% 50 km
Ortszeit Relative Feuchte Sichtweite
Di, 16.08. 18:00 31% >70 km
Di, 16.08. 17:50 31% -
Di, 16.08. 17:40 31% -
Di, 16.08. 17:30 32% 55 km
Di, 16.08. 17:20 32% -
Di, 16.08. 17:10 33% -
Di, 16.08. 17:00 32% 65 km
Di, 16.08. 16:30 34% 50 km
Di, 16.08. 16:00 34% 35 km
Di, 16.08. 15:30 34% 55 km
Di, 16.08. 15:00 35% >70 km
Ortszeit Niederschlagsmenge Niederschlagsart
Di, 16.08. 14:00 0.1 l/m2 in 6 Std. Niederschlag
Di, 16.08. 8:00 0.1 l/m2 in 12 Std. -
Di, 16.08. 2:00 0.1 l/m2 in 6 Std. Regen
Mo, 15.08. 20:00 0.0 l/m2 in 12 Std. -
Mo, 15.08. 14:00 0.0 l/m2 in 3 Std. -
Mo, 15.08. 8:00 0.0 l/m2 in 12 Std. -
Mo, 15.08. 2:00 0.0 l/m2 in 6 Std. -
So, 14.08. 20:00 0.1 l/m2 in 12 Std. Regen
Ortszeit Niederschlagsmenge Niederschlagsart
Di, 16.08. 18:00 0.0 l/m2 in 1 Std. -
Di, 16.08. 17:50 keine Meldung -
Di, 16.08. 17:40 keine Meldung -
Di, 16.08. 17:30 0.0 l/m2 in 1 Std. -
Di, 16.08. 17:20 keine Meldung -
Di, 16.08. 17:10 keine Meldung -
Di, 16.08. 17:00 0.0 l/m2 in 1 Std. -
Di, 16.08. 16:30 0.0 l/m2 in 1 Std. -
Di, 16.08. 16:00 0.0 l/m2 in 1 Std. -
Di, 16.08. 15:30 0.0 l/m2 in 1 Std. -
Di, 16.08. 15:00 0.0 l/m2 in 1 Std. -
Ortszeit Stärke Spitze Richtung
km/h Bft. km/h Grad Sektor
Di, 16.08. 14:00 11 2 22 240° SW
Di, 16.08. 8:00 11 2 18 230° SW
Di, 16.08. 2:00 13 3 19 220° SW
Mo, 15.08. 20:00 9 2 30 150° SO
Mo, 15.08. 14:00 14 3 25 180° S
Mo, 15.08. 8:00 6 1 11 140° SO
Mo, 15.08. 2:00 9 2 20 130° SO
So, 14.08. 20:00 14 3 29 100° O
Ortszeit Stärke Spitze Richtung
km/h Bft. km/h Grad Sektor
Di, 16.08. 18:00 9 2 22 220° SW
Di, 16.08. 17:50 9 2 - 220° SW
Di, 16.08. 17:40 9 2 - 190° S
Di, 16.08. 17:30 11 2 22 220° SW
Di, 16.08. 17:20 11 2 - 220° SW
Di, 16.08. 17:10 7 2 - 230° SW
Di, 16.08. 17:00 9 2 20 240° SW
Di, 16.08. 16:30 7 2 14 300° NW
Di, 16.08. 16:00 7 2 19 110° O
Di, 16.08. 15:30 7 2 18 100° O
Di, 16.08. 15:00 6 1 15 270° W
Ortszeit Untergrenze Bedeckung Gattung
total tief tief mittel hoch
Di, 16.08. 14:00 - 0/8 0/8 - - -
Di, 16.08. 8:00 10500 m 7/8 0/8 - - -
Di, 16.08. 2:00 4500 m 5/8 1/8 - - -
Mo, 15.08. 20:00 5700 m 8/8 8/8 - - -
Mo, 15.08. 14:00 3300 m 3/8 3/8 - - -
Mo, 15.08. 8:00 1500 m 5/8 2/8 - - -
Mo, 15.08. 2:00 1290 m 1/8 1/8 - - -
So, 14.08. 20:00 2700 m 8/8 8/8 - - -
Ortszeit Bedeckungsgrad in Achtel und Wolkenuntergrenze
Di, 16.08. 18:00 3(2100m)
Di, 16.08. 17:50 3(2100m)
Di, 16.08. 17:40 2
Di, 16.08. 17:30 2(2100m)
Di, 16.08. 17:20 2(2100m)
Di, 16.08. 17:10 4
Di, 16.08. 17:00 2(2100m)
Di, 16.08. 16:30 4(2100m)
Di, 16.08. 16:00 6(1800m)
Di, 16.08. 15:30 1(2100m)
Di, 16.08. 15:00 3(1800m)
Ortszeit Luftdruck NN (hPa) Tendenz (hPa in 3 Std.)
Di, 16.08. 14:00 1009 - 0,2
Di, 16.08. 8:00 1009 + 1,3
Di, 16.08. 2:00 1007 + 0,3
Mo, 15.08. 20:00 1005 + 0,2
Mo, 15.08. 14:00 1005 - 1,0
Mo, 15.08. 8:00 1006 + 0,2
Mo, 15.08. 2:00 1007 - 0,7
So, 14.08. 20:00 1008 - 1,0
Ortszeit Luftdruck NN (hPa) Tendenz (hPa in 3 Std.)
Di, 16.08. 18:00 1008 - 0,4
Di, 16.08. 17:50 1008 keine Meldung
Di, 16.08. 17:40 1008 keine Meldung
Di, 16.08. 17:30 1008 - 0,8
Di, 16.08. 17:20 1008 keine Meldung
Di, 16.08. 17:10 1008 keine Meldung
Di, 16.08. 17:00 1008 - 0,8
Di, 16.08. 16:30 1008 - 0,6
Di, 16.08. 16:00 1008 - 0,8
Di, 16.08. 15:30 1008 - 0,7
Di, 16.08. 15:00 1009 - 0,5
Ortszeit Schneehöhe (cm)
Di, 16.08. 14:00 0
Di, 16.08. 8:00 0
Di, 16.08. 2:00 0
Mo, 15.08. 20:00 0
Mo, 15.08. 14:00 0
Mo, 15.08. 8:00 0
Mo, 15.08. 2:00 0
So, 14.08. 20:00 0
Ortszeit Schneehöhe (cm)
Di, 16.08. 18:00 0
Di, 16.08. 17:50 0
Di, 16.08. 17:40 0
Di, 16.08. 17:30 0
Di, 16.08. 17:20 0
Di, 16.08. 17:10 0
Di, 16.08. 17:00 0
Di, 16.08. 16:30 0
Di, 16.08. 16:00 0
Di, 16.08. 15:30 0
Di, 16.08. 15:00 0
Link zu dieser Seite / Seite empfehlen

Das Wetter in ...